Time;durP1;ratioP1;P1;durP2;ratioP2;P2;SDS_P1;SDS_P2;PMS_P1;PMS_P2;Temp;Humidity;BMP_temperature;BMP_pressure;BME280_temperature;BME280_humidity;BME280_pressure;Samples;Min_cycle;Max_cycle;Signal;HPM_P1;HPM_P2
2023/10/12 00:00:41;;;;;;;21.95;8.27;;;;;;;20.63;80.12;101286.25;4991210;28;20129;-42
2023/10/12 00:03:08;;;;;;;22.70;7.78;;;;;;;20.83;79.67;101285.81;4990998;28;20030;-42
2023/10/12 00:05:34;;;;;;;19.52;7.90;;;;;;;20.56;80.38;101282.84;4991037;28;20058;-43
2023/10/12 00:08:07;;;;;;;16.83;6.82;;;;;;;20.24;81.70;101282.63;4992844;28;20042;-44
2023/10/12 00:10:44;;;;;;;21.00;7.00;;;;;;;20.38;80.59;101292.97;5001601;28;20061;-44
2023/10/12 00:13:11;;;;;;;15.75;5.90;;;;;;;20.01;81.87;101301.56;4999262;28;20778;-45
2023/10/12 00:15:41;;;;;;;14.20;4.80;;;;;;;19.90;81.32;101311.50;4990356;28;20036;-44
2023/10/12 00:18:10;;;;;;;13.10;5.05;;;;;;;19.83;81.76;101308.09;4990204;28;20046;-44
2023/10/12 00:20:37;;;;;;;19.33;4.53;;;;;;;20.06;79.40;101301.53;4989855;28;20039;-45
2023/10/12 00:23:10;;;;;;;15.20;4.10;;;;;;;19.99;80.14;101314.00;4990077;28;20031;-47
2023/10/12 00:25:58;;;;;;;15.15;4.50;;;;;;;20.13;79.14;101305.78;4990875;28;20038;-44
2023/10/12 00:28:28;;;;;;;14.40;3.92;;;;;;;20.25;78.87;101316.13;4990357;28;20121;-40
2023/10/12 00:30:57;;;;;;;16.33;4.03;;;;;;;19.90;80.10;101315.91;4991097;28;20069;-45
2023/10/12 00:33:23;;;;;;;12.38;3.60;;;;;;;20.02;80.11;101316.56;4988538;28;20038;-40
2023/10/12 00:36:00;;;;;;;14.75;3.83;;;;;;;20.15;79.57;101309.28;4990281;28;20097;-42
2023/10/12 00:38:29;;;;;;;13.02;3.50;;;;;;;19.91;79.94;101315.88;4989527;28;20496;-42
2023/10/12 00:40:57;;;;;;;13.23;3.92;;;;;;;20.01;79.35;101320.09;4990068;28;20038;-43
2023/10/12 00:43:31;;;;;;;15.77;3.70;;;;;;;19.87;80.10;101313.34;4989204;28;20046;-43
2023/10/12 00:45:57;;;;;;;13.02;4.10;;;;;;;19.86;80.41;101317.75;4990015;28;20039;-43
2023/10/12 00:48:29;;;;;;;11.05;3.40;;;;;;;20.03;79.80;101322.72;4989402;28;20043;-46
2023/10/12 00:50:56;;;;;;;14.02;3.63;;;;;;;19.93;80.27;101322.03;4989933;28;20591;-45
2023/10/12 00:53:22;;;;;;;14.98;3.88;;;;;;;20.01;80.57;101319.22;4987884;28;20069;-47
2023/10/12 00:55:48;;;;;;;14.60;3.50;;;;;;;19.80;81.31;101324.03;4990104;28;20038;-41
2023/10/12 00:58:15;;;;;;;12.57;3.50;;;;;;;19.98;80.72;101320.19;4989208;28;20038;-46
2023/10/12 01:00:51;;;;;;;17.15;3.90;;;;;;;20.08;80.33;101303.22;4988463;28;20026;-45
2023/10/12 01:03:35;;;;;;;10.65;3.60;;;;;;;20.33;79.55;101308.06;4989446;28;20113;-46
2023/10/12 01:08:43;;;;;;;11.88;3.70;;;;;;;20.26;79.21;101305.50;4993106;28;20070;-45
2023/10/12 01:11:20;;;;;;;12.35;3.42;;;;;;;20.15;79.67;101303.97;4993181;28;20038;-42
2023/10/12 01:14:03;;;;;;;10.27;3.28;;;;;;;20.18;79.64;101302.16;4993685;28;20037;-42
2023/10/12 01:16:42;;;;;;;9.52;3.10;;;;;;;20.28;79.19;101302.84;4993090;28;20085;-42
2023/10/12 01:19:07;;;;;;;7.75;2.53;;;;;;;20.33;78.77;101297.47;4992594;28;20034;-42
2023/10/12 01:21:36;;;;;;;8.73;2.70;;;;;;;20.29;78.82;101294.00;4993546;28;20044;-44
2023/10/12 01:24:13;;;;;;;7.05;2.70;;;;;;;20.00;79.85;101283.09;4995191;28;20037;-45
2023/10/12 01:26:49;;;;;;;8.93;2.60;;;;;;;20.11;79.74;101278.47;4996293;28;20030;-42
2023/10/12 01:29:20;;;;;;;11.05;2.60;;;;;;;20.12;79.48;101283.75;4993557;28;20038;-44
2023/10/12 01:32:08;;;;;;;9.02;2.35;;;;;;;20.00;79.45;101277.81;4993629;28;20026;-42
2023/10/12 01:34:37;;;;;;;6.60;2.45;;;;;;;20.17;79.13;101287.19;4993008;28;20038;-44
2023/10/12 01:37:11;;;;;;;9.50;2.50;;;;;;;20.14;79.36;101284.56;4993046;28;20121;-43
2023/10/12 01:39:40;;;;;;;9.50;2.40;;;;;;;20.13;79.45;101281.94;4992781;28;20121;-45
2023/10/12 01:42:06;;;;;;;7.43;2.50;;;;;;;20.29;78.72;101294.00;4993315;28;20035;-47
2023/10/12 01:44:32;;;;;;;7.22;2.53;;;;;;;20.16;79.50;101295.13;4992579;28;20038;-43
2023/10/12 01:46:58;;;;;;;6.90;2.70;;;;;;;20.25;79.27;101292.28;4993238;28;20061;-43
2023/10/12 01:49:23;;;;;;;7.93;2.53;;;;;;;20.21;79.45;101287.97;4992333;28;20050;-43
2023/10/12 01:51:49;;;;;;;10.40;2.70;;;;;;;20.27;79.36;101283.44;4993183;28;20057;-43
2023/10/12 01:54:24;;;;;;;9.95;2.53;;;;;;;20.24;78.97;101272.91;4990734;28;20049;-43
2023/10/12 01:56:53;;;;;;;9.32;2.47;;;;;;;20.07;79.99;101267.06;4992911;28;20037;-42
2023/10/12 01:59:25;;;;;;;7.78;2.72;;;;;;;20.19;79.63;101277.41;4992611;28;20034;-44
2023/10/12 02:01:59;;;;;;;7.18;2.58;;;;;;;20.18;79.61;101277.47;4991695;28;20035;-42
2023/10/12 02:04:26;;;;;;;9.15;2.65;;;;;;;20.14;79.91;101283.69;4992119;28;20082;-46
2023/10/12 02:06:52;;;;;;;7.85;2.47;;;;;;;20.12;80.22;101281.09;4992507;28;20038;-42
2023/10/12 02:09:22;;;;;;;8.07;2.50;;;;;;;20.31;79.50;101278.94;4992042;28;20039;-42
2023/10/12 02:11:53;;;;;;;6.40;2.50;;;;;;;20.33;79.33;101273.66;4991812;28;20041;-42
2023/10/12 02:14:31;;;;;;;6.35;2.42;;;;;;;20.06;80.18;101275.06;4991854;28;20038;-42
2023/10/12 02:16:56;;;;;;;7.13;2.30;;;;;;;20.12;80.27;101275.81;4992794;28;20034;-43
2023/10/12 02:19:39;;;;;;;8.50;2.55;;;;;;;20.34;79.80;101270.97;4991625;28;20041;-41
2023/10/12 02:22:06;;;;;;;5.53;2.25;;;;;;;20.35;79.36;101263.91;4992637;28;20040;-41
2023/10/12 02:24:35;;;;;;;5.75;2.10;;;;;;;20.53;78.63;101255.56;4991784;28;20066;-44
2023/10/12 02:27:00;;;;;;;7.10;2.45;;;;;;;20.50;78.60;101248.56;4992225;28;20081;-45
2023/10/12 02:29:28;;;;;;;7.68;2.42;;;;;;;20.38;79.26;101258.53;4991483;28;20070;-44
2023/10/12 02:34:27;;;;;;;8.55;2.47;;;;;;;20.40;79.23;101254.09;4991230;28;20045;-44
2023/10/12 02:37:00;;;;;;;8.10;2.53;;;;;;;20.19;79.62;101256.22;4991920;28;20080;-46
2023/10/12 02:39:40;;;;;;;7.47;2.60;;;;;;;20.24;79.91;101258.81;4991377;28;20439;-42
2023/10/12 02:47:29;;;;;;;7.05;2.22;;;;;;;20.15;79.95;101272.22;4991202;28;20113;-43
2023/10/12 02:50:26;;;;;;;6.00;2.15;;;;;;;20.17;80.01;101267.75;4991703;28;20034;-46
2023/10/12 02:52:45;;;;;;;6.70;2.00;;;;;;;20.15;80.07;101274.84;4991048;28;20030;-51
2023/10/12 02:57:56;;;;;;;7.00;1.98;;;;;;;20.18;79.79;101264.22;4991555;28;20066;-42
2023/10/12 03:00:31;;;;;;;5.30;1.88;;;;;;;20.02;80.73;101265.41;4991017;28;20035;-47
2023/10/12 03:03:05;;;;;;;6.30;1.63;;;;;;;20.13;79.99;101261.63;4991662;28;20038;-41
2023/10/12 03:05:33;;;;;;;5.68;1.77;;;;;;;19.96;80.50;101262.88;4991295;28;20034;-41
2023/10/12 03:08:06;;;;;;;3.67;1.40;;;;;;;19.91;80.64;101270.91;4991601;28;20034;-42
2023/10/12 03:10:31;;;;;;;3.88;1.45;;;;;;;19.97;80.66;101275.22;4991172;28;20038;-41
2023/10/12 03:13:04;;;;;;;3.40;1.48;;;;;;;20.17;79.70;101271.28;4991217;28;20092;-42
2023/10/12 03:15:42;;;;;;;4.22;1.40;;;;;;;20.27;79.21;101264.03;4990920;28;20093;-42
2023/10/12 03:18:11;;;;;;;4.07;1.42;;;;;;;20.24;79.11;101264.09;4990640;28;20069;-41
2023/10/12 03:20:38;;;;;;;3.00;1.23;;;;;;;20.14;79.61;101262.50;4991045;28;20477;-44
2023/10/12 03:23:13;;;;;;;4.18;1.13;;;;;;;19.98;80.29;101267.25;4990968;28;20030;-41
2023/10/12 03:25:51;;;;;;;4.30;1.27;;;;;;;20.00;80.39;101277.81;4991441;28;20034;-40
2023/10/12 03:28:29;;;;;;;3.10;1.40;;;;;;;20.17;80.06;101278.34;4991922;28;20130;-48
2023/10/12 03:31:11;;;;;;;4.05;1.20;;;;;;;19.83;81.19;101289.56;4991587;28;20480;-47
2023/10/12 03:33:37;;;;;;;4.18;1.30;;;;;;;19.90;81.25;101286.81;4990521;28;20057;-43
2023/10/12 03:36:23;;;;;;;4.60;1.15;;;;;;;19.97;80.44;101299.03;4990794;28;20408;-43
2023/10/12 03:49:57;;;;;;;3.97;1.13;;;;;;;19.97;80.30;101302.56;4990510;28;20060;-43
2023/10/12 03:52:34;;;;;;;2.80;1.08;;;;;;;20.14;79.63;101291.63;4989663;28;20108;-42
2023/10/12 03:57:31;;;;;;;2.35;0.98;;;;;;;20.26;79.17;101294.03;4989921;28;20038;-41
2023/10/12 04:18:41;;;;;;;7.00;3.90;;;;;;;19.55;78.71;101305.94;4989918;28;20552;-45
2023/10/12 04:21:09;;;;;;;7.88;4.18;;;;;;;19.64;77.63;101308.44;4990293;28;20382;-43
2023/10/12 04:23:48;;;;;;;6.68;3.67;;;;;;;19.63;78.12;101318.16;4989660;28;20061;-42
2023/10/12 04:28:55;;;;;;;8.20;4.00;;;;;;;19.50;78.75;101323.66;4990304;28;20468;-44
2023/10/12 04:31:20;;;;;;;7.57;4.00;;;;;;;19.43;78.32;101329.03;4990208;28;20129;-43
2023/10/12 04:46:59;;;;;;;6.57;3.60;;;;;;;18.91;78.97;101341.22;4994497;28;20389;-44
2023/10/12 04:57:27;;;;;;;6.25;3.20;;;;;;;18.70;79.04;101345.03;4993958;28;20038;-45
2023/10/12 05:10:31;;;;;;;7.15;2.90;;;;;;;18.67;78.80;101367.94;4993649;28;20062;-42
2023/10/12 05:13:04;;;;;;;5.53;2.70;;;;;;;18.57;79.45;101367.19;4994071;28;20038;-45
2023/10/12 05:15:54;;;;;;;5.10;2.70;;;;;;;18.66;79.15;101371.50;4993423;28;20030;-44
2023/10/12 05:18:21;;;;;;;3.97;2.22;;;;;;;18.54;79.48;101381.25;4993162;28;20093;-42
2023/10/12 05:20:47;;;;;;;4.07;2.10;;;;;;;18.68;78.68;101375.88;4993705;28;20030;-41
2023/10/12 05:23:12;;;;;;;3.17;1.70;;;;;;;18.41;79.58;101389.38;4993181;28;20034;-43
2023/10/12 05:28:27;;;;;;;2.58;0.90;;;;;;;18.39;79.17;101378.81;4995180;28;20042;-43
2023/10/12 05:30:59;;;;;;;1.30;0.80;;;;;;;18.55;78.26;101383.06;4995493;28;20093;-43
2023/10/12 05:36:11;;;;;;;0.65;0.40;;;;;;;18.42;78.67;101391.97;4995739;28;20130;-47
2023/10/12 05:38:51;;;;;;;4.13;0.40;;;;;;;18.41;78.37;101392.88;4993809;28;20042;-46
2023/10/12 05:41:34;;;;;;;1.25;0.40;;;;;;;18.38;78.30;101392.91;4992916;28;20471;-44
2023/10/12 05:44:04;;;;;;;1.08;0.52;;;;;;;18.45;78.04;101391.94;4993350;28;20038;-42
2023/10/12 05:46:34;;;;;;;2.65;0.90;;;;;;;18.39;78.11;101389.38;4992888;28;20035;-44
2023/10/12 05:49:01;;;;;;;2.10;1.00;;;;;;;18.26;78.56;101387.75;4993159;28;20042;-44
2023/10/12 05:51:27;;;;;;;2.20;1.10;;;;;;;18.25;78.32;101401.81;4992761;28;20493;-52
2023/10/12 05:54:03;;;;;;;2.65;1.05;;;;;;;18.18;78.87;101392.22;4991763;28;20052;-48
2023/10/12 05:56:34;;;;;;;1.88;1.30;;;;;;;18.36;78.43;101401.75;4992379;28;20440;-44
2023/10/12 05:59:09;;;;;;;2.75;1.70;;;;;;;18.28;78.36;101395.66;4992410;28;20046;-48
2023/10/12 06:01:35;;;;;;;2.15;1.45;;;;;;;18.36;78.21;101407.03;4992207;28;20034;-43
2023/10/12 06:04:07;;;;;;;3.40;1.88;;;;;;;18.16;78.93;101396.66;4992530;28;20041;-42
2023/10/12 06:06:42;;;;;;;3.97;2.20;;;;;;;18.10;79.39;101405.50;4992231;28;20030;-42
2023/10/12 06:09:20;;;;;;;4.10;2.08;;;;;;;18.27;78.69;101409.75;4992370;28;20129;-43
2023/10/12 06:11:47;;;;;;;5.70;2.70;;;;;;;18.21;78.94;101411.56;4992847;28;20062;-47
2023/10/12 06:14:14;;;;;;;4.03;2.47;;;;;;;18.31;78.64;101412.31;4992159;28;20121;-43
2023/10/12 06:16:40;;;;;;;4.55;2.45;;;;;;;18.28;78.72;101417.66;4992343;28;20034;-48
2023/10/12 06:21:46;;;;;;;3.75;2.10;;;;;;;18.28;78.58;101422.94;4992900;28;20476;-46
2023/10/12 06:24:11;;;;;;;4.40;1.90;;;;;;;18.13;78.88;101429.22;4992486;28;20043;-43
2023/10/12 06:26:38;;;;;;;4.97;1.83;;;;;;;18.06;78.92;101421.34;4992374;28;20034;-44
2023/10/12 06:29:07;;;;;;;2.67;1.50;;;;;;;17.89;79.82;101423.25;4994118;28;20109;-43
2023/10/12 06:31:33;;;;;;;3.50;1.80;;;;;;;17.96;79.32;101427.59;4991612;28;20054;-46
2023/10/12 06:34:02;;;;;;;4.93;1.80;;;;;;;17.79;79.50;101433.91;4991802;28;20099;-49
2023/10/12 06:36:37;;;;;;;3.25;1.52;;;;;;;17.90;79.13;101430.28;4991591;28;20070;-45
2023/10/12 06:44:27;;;;;;;4.20;1.92;;;;;;;18.05;79.06;101441.56;4991475;28;20046;-43
2023/10/12 06:47:24;;;;;;;4.90;1.85;;;;;;;18.08;78.89;101448.59;4991784;28;20022;-46
2023/10/12 06:49:47;;;;;;;4.63;1.75;;;;;;;18.16;78.45;101450.31;4991509;28;20046;-46
2023/10/12 06:52:18;;;;;;;4.22;2.00;;;;;;;18.11;78.72;101459.16;4991255;28;20492;-46
2023/10/12 06:54:54;;;;;;;4.45;2.05;;;;;;;18.12;78.56;101455.59;4991506;28;20035;-44
2023/10/12 06:59:52;;;;;;;4.90;2.17;;;;;;;18.25;78.40;101455.50;4992574;28;20034;-43
2023/10/12 07:02:24;;;;;;;4.97;2.40;;;;;;;18.24;78.61;101464.28;4991525;28;20042;-47
2023/10/12 07:04:55;;;;;;;5.68;2.40;;;;;;;18.13;78.86;101473.19;4991753;28;20046;-44
2023/10/12 07:07:27;;;;;;;5.95;2.63;;;;;;;18.23;78.85;101470.50;4990598;28;20104;-46
2023/10/12 07:12:42;;;;;;;6.05;2.40;;;;;;;18.17;78.77;101465.25;4990818;28;20030;-45
2023/10/12 07:15:22;;;;;;;5.45;2.50;;;;;;;18.27;78.55;101457.25;4989792;28;20038;-45
2023/10/12 07:17:51;;;;;;;4.85;2.20;;;;;;;18.25;78.54;101467.81;4991294;28;20057;-46
2023/10/12 07:23:16;;;;;;;6.72;2.10;;;;;;;18.03;79.42;101482.06;4991166;28;20507;-46
2023/10/12 07:25:49;;;;;;;5.97;2.30;;;;;;;18.15;78.77;101487.25;4990922;28;20026;-42
2023/10/12 07:28:33;;;;;;;5.35;2.05;;;;;;;18.05;78.99;101486.44;4990582;28;20555;-46
2023/10/12 07:36:35;;;;;;;5.30;1.95;;;;;;;18.40;78.20;101485.28;4990211;28;20066;-46
2023/10/12 07:40:17;;;;;;;2.88;1.40;;;;;;;17.86;79.76;101491.88;4990661;28;20047;-48
2023/10/12 07:41:57;;;;;;;3.53;1.33;;;;;;;17.80;79.43;101496.31;4985497;28;20042;-44
2023/10/12 07:44:23;;;;;;;2.60;1.10;;;;;;;18.13;78.39;101497.81;4990669;28;20038;-43
2023/10/12 07:46:49;;;;;;;5.30;1.30;;;;;;;17.99;78.88;101488.28;4990653;28;20034;-44
2023/10/12 07:49:48;;;;;;;2.45;1.48;;;;;;;18.04;79.11;101490.00;4990683;28;20034;-45
2023/10/12 07:54:54;;;;;;;4.18;1.58;;;;;;;18.25;78.09;101494.19;4990543;28;20396;-42
2023/10/12 07:57:29;;;;;;;3.35;1.70;;;;;;;17.85;79.39;101491.00;4990297;28;20041;-46
2023/10/12 08:13:26;;;;;;;4.45;2.42;;;;;;;18.25;78.27;101502.13;4990267;28;20409;-43
2023/10/12 08:15:56;;;;;;;3.65;2.10;;;;;;;18.04;78.85;101508.47;4990207;28;20045;-43
2023/10/12 08:23:37;;;;;;;5.32;2.30;;;;;;;18.63;78.21;101499.19;4989605;28;20023;-46
2023/10/12 08:26:03;;;;;;;4.13;2.10;;;;;;;18.61;78.00;101508.88;4990065;28;20042;-44
2023/10/12 08:28:36;;;;;;;5.38;2.20;;;;;;;18.66;78.12;101512.38;4989441;28;20038;-47
2023/10/12 08:31:20;;;;;;;5.50;2.25;;;;;;;18.76;77.83;101511.38;4990195;28;20577;-48
2023/10/12 08:34:13;;;;;;;3.87;2.10;;;;;;;18.82;77.73;101513.06;4990390;28;20736;-44
2023/10/12 08:36:45;;;;;;;4.45;1.80;;;;;;;18.87;78.05;101511.25;4989589;28;20772;-44
2023/10/12 08:39:11;;;;;;;5.43;2.00;;;;;;;18.86;77.69;101520.94;4989980;28;20134;-46
2023/10/12 08:41:56;;;;;;;3.25;1.90;;;;;;;18.71;77.44;101523.75;4990030;28;20180;-47
2023/10/12 08:44:21;;;;;;;3.22;1.80;;;;;;;18.55;77.23;101528.28;4989760;28;20034;-45
2023/10/12 08:46:59;;;;;;;3.90;2.10;;;;;;;18.74;77.08;101526.34;4990345;28;20053;-46
2023/10/12 08:52:05;;;;;;;4.03;1.77;;;;;;;18.66;77.27;101511.50;4990378;28;20420;-45
2023/10/12 08:54:37;;;;;;;3.47;1.90;;;;;;;18.74;77.02;101512.28;4989320;28;20465;-46
2023/10/12 08:57:09;;;;;;;3.45;1.80;;;;;;;18.74;76.84;101507.00;4990013;28;20133;-46
2023/10/12 08:59:38;;;;;;;4.47;2.10;;;;;;;18.55;77.69;101487.81;4989720;28;20493;-48
2023/10/12 09:02:18;;;;;;;3.58;2.05;;;;;;;18.67;77.40;101479.75;4989618;28;20034;-47
2023/10/12 09:04:45;;;;;;;4.15;2.10;;;;;;;18.74;77.48;101477.94;4990308;28;20045;-45
2023/10/12 09:07:16;;;;;;;3.00;1.95;;;;;;;18.89;77.36;101478.66;4990610;28;20065;-45
2023/10/12 09:09:55;;;;;;;5.57;2.00;;;;;;;18.90;77.80;101475.13;4991850;28;20034;-44
2023/10/12 09:12:22;;;;;;;3.25;1.77;;;;;;;18.78;78.45;101482.31;4989874;28;20039;-51
2023/10/12 09:14:54;;;;;;;2.80;1.70;;;;;;;18.94;77.50;101475.97;4989703;28;20037;-44
2023/10/12 09:17:27;;;;;;;2.85;1.55;;;;;;;18.81;77.77;101483.16;4989309;28;20042;-45
2023/10/12 09:20:26;;;;;;;3.83;1.70;;;;;;;18.97;76.93;101483.84;4989758;28;20036;-48
2023/10/12 09:22:45;;;;;;;2.60;1.80;;;;;;;18.90;76.85;101476.91;4989118;28;20045;-48
2023/10/12 09:25:26;;;;;;;2.53;1.50;;;;;;;18.77;77.10;101475.28;4989377;28;20408;-44
2023/10/12 09:27:55;;;;;;;2.42;1.40;;;;;;;18.71;78.10;101472.69;4989838;28;20038;-46
2023/10/12 09:30:25;;;;;;;2.65;1.50;;;;;;;18.78;77.92;101466.47;4992637;28;20457;-45
2023/10/12 09:33:08;;;;;;;3.88;1.60;;;;;;;18.96;77.39;101468.91;4992766;28;20034;-47
2023/10/12 09:35:39;;;;;;;2.53;1.40;;;;;;;18.78;77.53;101469.09;4992494;28;20026;-46
2023/10/12 09:38:05;;;;;;;2.08;1.30;;;;;;;18.99;76.61;101468.84;4993073;28;20038;-46
2023/10/12 09:40:42;;;;;;;1.90;1.30;;;;;;;18.90;76.83;101463.69;4992447;28;20373;-50
2023/10/12 09:43:12;;;;;;;2.03;1.20;;;;;;;18.75;77.68;101455.91;4992495;28;20412;-49
2023/10/12 09:45:44;;;;;;;1.77;1.30;;;;;;;18.90;77.34;101459.28;4992333;28;20430;-47
2023/10/12 09:48:18;;;;;;;2.70;1.40;;;;;;;18.75;77.84;101459.44;4992053;28;20082;-44
2023/10/12 09:50:47;;;;;;;2.20;1.30;;;;;;;18.74;77.87;101448.88;4992911;28;20034;-44
2023/10/12 09:53:26;;;;;;;2.40;1.48;;;;;;;18.95;77.50;101444.25;4992289;28;20589;-46
2023/10/12 09:56:03;;;;;;;2.30;1.42;;;;;;;18.68;78.76;101441.91;4992582;28;20038;-47
2023/10/12 09:58:32;;;;;;;2.72;1.70;;;;;;;18.96;77.98;101440.72;4992277;28;20042;-42
2023/10/12 10:01:15;;;;;;;2.75;1.50;;;;;;;18.67;79.19;101445.44;4992600;28;20535;-49
2023/10/12 10:03:52;;;;;;;2.72;1.60;;;;;;;19.03;78.11;101428.25;4992182;28;20452;-44
2023/10/12 10:06:37;;;;;;;3.38;1.70;;;;;;;19.03;78.25;101436.19;4991775;28;20038;-48
2023/10/12 10:09:18;;;;;;;2.75;1.90;;;;;;;18.79;78.96;101434.72;4992357;28;20081;-49
2023/10/12 10:11:45;;;;;;;2.88;1.90;;;;;;;19.20;77.59;101428.94;4992035;28;20061;-44
2023/10/12 10:14:17;;;;;;;2.92;1.83;;;;;;;18.84;79.24;101417.06;4991836;28;20046;-50
2023/10/12 10:16:57;;;;;;;5.88;2.20;;;;;;;18.90;79.38;101421.41;4992251;28;20034;-45
2023/10/12 10:19:28;;;;;;;3.13;1.80;;;;;;;19.17;78.26;101426.34;4991970;28;20042;-47
2023/10/12 10:22:14;;;;;;;4.15;2.20;;;;;;;18.78;79.23;101422.44;4992124;28;20037;-46
2023/10/12 10:24:55;;;;;;;3.20;2.10;;;;;;;18.99;78.63;101416.00;4991940;28;20126;-45
2023/10/12 10:27:29;;;;;;;3.85;2.10;;;;;;;19.34;77.57;101410.22;4991614;28;20100;-48
2023/10/12 10:29:58;;;;;;;3.75;2.20;;;;;;;19.62;77.02;101405.47;4992112;28;20568;-47
2023/10/12 10:32:30;;;;;;;3.70;2.25;;;;;;;19.71;76.74;101405.31;4991444;28;20501;-48
2023/10/12 10:35:04;;;;;;;2.90;2.22;;;;;;;19.73;76.54;101403.53;4992280;28;20444;-48
2023/10/12 10:38:17;;;;;;;3.60;2.10;;;;;;;19.56;76.95;101403.78;4991763;28;20038;-47
2023/10/12 10:40:49;;;;;;;3.15;2.38;;;;;;;19.60;76.88;101402.84;4988110;28;20038;-48
2023/10/12 10:43:15;;;;;;;3.25;2.47;;;;;;;19.40;77.79;101397.81;4991601;28;20042;-49
2023/10/12 10:45:42;;;;;;;3.40;2.65;;;;;;;19.27;78.19;101400.66;4992015;28;20089;-47
2023/10/12 10:48:10;;;;;;;3.90;2.55;;;;;;;19.48;77.63;101396.84;4991875;28;20570;-47
2023/10/12 10:50:42;;;;;;;5.95;2.70;;;;;;;19.27;78.12;101395.38;4991939;28;20516;-45
2023/10/12 10:53:08;;;;;;;4.30;2.80;;;;;;;19.54;77.26;101397.63;4992005;28;20038;-46
2023/10/12 10:55:35;;;;;;;4.47;2.85;;;;;;;19.32;78.08;101394.41;4991342;28;20157;-46
2023/10/12 10:58:01;;;;;;;5.43;3.17;;;;;;;19.58;77.23;101396.69;4991382;28;20062;-46
2023/10/12 11:00:37;;;;;;;4.70;2.97;;;;;;;19.54;77.10;101400.28;4990885;28;20034;-48
2023/10/12 11:03:04;;;;;;;5.32;3.05;;;;;;;19.55;77.10;101402.03;4991393;28;20453;-46
2023/10/12 11:05:30;;;;;;;6.43;3.30;;;;;;;19.50;77.68;101403.88;4991295;28;20034;-47
2023/10/12 11:08:05;;;;;;;4.82;2.95;;;;;;;19.48;78.14;101403.00;4990387;28;20684;-45
2023/10/12 11:11:12;;;;;;;4.78;2.70;;;;;;;19.36;78.16;101401.41;4991955;28;20035;-45
2023/10/12 11:13:19;;;;;;;4.63;3.10;;;;;;;19.38;78.88;101382.88;4990935;28;20123;-46
2023/10/12 11:15:44;;;;;;;4.40;2.90;;;;;;;19.55;78.56;101386.16;4991193;28;20066;-44
2023/10/12 11:18:17;;;;;;;5.63;2.90;;;;;;;19.66;78.44;101380.69;4990731;28;20053;-44
2023/10/12 11:20:57;;;;;;;4.65;3.00;;;;;;;19.76;78.65;101371.75;4991445;28;20065;-46
2023/10/12 11:23:22;;;;;;;5.60;3.15;;;;;;;19.79;78.10;101380.47;4990777;28;20118;-49
2023/10/12 11:25:48;;;;;;;6.07;3.25;;;;;;;19.77;78.24;101382.28;4990810;28;20506;-49
2023/10/12 11:28:33;;;;;;;4.72;3.00;;;;;;;19.77;78.08;101370.81;4990233;28;20039;-51
2023/10/12 11:31:20;;;;;;;4.70;2.80;;;;;;;19.88;77.91;101362.72;4991043;28;20126;-44
2023/10/12 11:33:49;;;;;;;4.57;3.05;;;;;;;19.87;78.20;101351.25;4989301;28;20503;-51
2023/10/12 11:36:24;;;;;;;4.53;2.60;;;;;;;19.79;78.45;101348.72;4990883;28;20507;-45
2023/10/12 11:39:00;;;;;;;4.35;2.90;;;;;;;19.89;77.91;101349.44;4991128;28;20030;-51
2023/10/12 11:41:27;;;;;;;5.20;3.17;;;;;;;19.82;78.87;101347.81;4990357;28;20650;-46
2023/10/12 11:43:53;;;;;;;6.10;3.80;;;;;;;19.73;79.29;101338.25;4990496;28;20501;-48
2023/10/12 11:46:19;;;;;;;5.85;4.00;;;;;;;19.68;79.56;101332.19;4990109;28;20046;-45
2023/10/12 11:49:00;;;;;;;6.72;3.90;;;;;;;19.90;78.95;101330.03;4990743;28;20038;-48
2023/10/12 11:51:26;;;;;;;7.45;4.05;;;;;;;19.88;79.12;101329.19;4989511;28;20511;-45
2023/10/12 11:53:53;;;;;;;7.47;4.28;;;;;;;19.96;78.76;101326.38;4990328;28;20030;-48
2023/10/12 11:56:22;;;;;;;7.18;4.32;;;;;;;19.71;80.28;101320.66;4990613;28;20034;-45
2023/10/12 11:58:55;;;;;;;7.85;4.70;;;;;;;19.89;79.12;101322.09;4990646;28;20038;-46
2023/10/12 12:01:33;;;;;;;9.20;4.40;;;;;;;19.75;80.00;101319.72;4990126;28;20030;-46
2023/10/12 12:03:59;;;;;;;9.55;5.00;;;;;;;19.46;81.70;101325.47;4990437;28;20105;-48
2023/10/12 12:06:26;;;;;;;9.25;5.00;;;;;;;19.65;81.16;101320.75;4989353;28;20538;-47
2023/10/12 12:08:56;;;;;;;8.80;4.97;;;;;;;19.73;80.58;101325.03;4990015;28;20042;-46
2023/10/12 12:11:28;;;;;;;9.43;5.07;;;;;;;20.01;79.15;101335.09;4989593;28;20030;-46
2023/10/12 12:13:53;;;;;;;9.55;5.38;;;;;;;20.04;78.92;101329.78;4990112;28;20138;-46
2023/10/12 12:16:21;;;;;;;9.57;5.40;;;;;;;20.11;78.94;101336.72;4989477;28;20637;-47
2023/10/12 12:18:50;;;;;;;9.38;5.32;;;;;;;20.11;78.83;101348.19;4989007;28;20046;-47
2023/10/12 12:21:17;;;;;;;12.43;5.97;;;;;;;19.67;81.26;101363.94;4989916;28;20548;-47
2023/10/12 12:23:47;;;;;;;19.83;6.47;;;;;;;19.42;83.26;101379.28;4989740;28;20484;-47
2023/10/12 12:26:14;;;;;;;12.30;5.70;;;;;;;19.94;80.64;101392.59;4990209;28;20069;-46
2023/10/12 12:28:45;;;;;;;18.42;6.72;;;;;;;19.85;81.01;101390.97;4989411;28;20092;-46
2023/10/12 12:31:15;;;;;;;10.77;5.80;;;;;;;19.88;80.08;101363.59;4989682;28;20039;-46
2023/10/12 12:33:44;;;;;;;7.40;3.35;;;;;;;19.57;81.03;101360.56;4989783;28;20135;-51
2023/10/12 12:36:20;;;;;;;3.80;2.47;;;;;;;19.73;79.67;101338.25;4989491;28;20039;-45
2023/10/12 12:38:51;;;;;;;5.00;2.30;;;;;;;19.74;79.58;101345.31;4990022;28;20033;-46
2023/10/12 12:41:20;;;;;;;3.95;2.40;;;;;;;19.26;81.92;101341.63;4989355;28;20054;-46
2023/10/12 12:43:46;;;;;;;4.43;2.13;;;;;;;19.17;82.86;101320.59;4992031;28;20064;-43
2023/10/12 12:46:12;;;;;;;4.35;2.10;;;;;;;19.31;82.32;101310.69;4993214;28;20039;-44
2023/10/12 12:48:38;;;;;;;3.40;1.98;;;;;;;19.05;84.42;101311.09;4988703;28;20069;-46
2023/10/12 12:51:08;;;;;;;3.15;1.80;;;;;;;19.32;83.63;101312.47;4990446;28;20045;-44
2023/10/12 12:53:34;;;;;;;2.75;1.80;;;;;;;19.81;81.56;101309.03;4990351;28;20113;-45
2023/10/12 12:56:02;;;;;;;1.90;1.30;;;;;;;20.02;81.36;101315.69;4990461;28;20130;-46
2023/10/12 12:58:28;;;;;;;1.98;1.35;;;;;;;20.12;80.95;101310.22;4989536;28;20035;-47
2023/10/12 13:00:53;;;;;;;1.90;1.17;;;;;;;20.13;80.40;101311.94;4990139;28;20129;-47
2023/10/12 13:03:19;;;;;;;2.15;1.50;;;;;;;20.10;80.60;101309.38;4990519;28;20121;-47
2023/10/12 13:05:44;;;;;;;2.60;1.70;;;;;;;20.20;80.36;101302.09;4994291;28;20034;-45
2023/10/12 13:08:11;;;;;;;3.58;2.33;;;;;;;20.30;79.71;101290.44;4993467;28;20030;-46
2023/10/12 13:10:39;;;;;;;4.32;2.45;;;;;;;19.60;82.31;101260.00;4993798;28;20045;-45
2023/10/12 13:13:06;;;;;;;5.22;3.33;;;;;;;19.87;82.38;101248.06;4993679;28;20572;-49
2023/10/12 13:15:31;;;;;;;6.82;4.10;;;;;;;20.14;81.76;101250.16;4993017;28;20117;-43
2023/10/12 13:18:00;;;;;;;7.68;4.65;;;;;;;20.23;81.39;101254.41;4993432;28;20117;-48
2023/10/12 13:20:31;;;;;;;6.97;4.82;;;;;;;20.44;81.06;101258.41;4993157;28;20046;-47
2023/10/12 13:22:57;;;;;;;7.72;4.90;;;;;;;20.54;80.98;101262.63;4993440;28;20058;-46
2023/10/12 13:25:25;;;;;;;10.70;5.82;;;;;;;20.56;81.24;101287.28;4992956;28;20040;-46
2023/10/12 13:27:51;;;;;;;10.60;6.05;;;;;;;20.23;82.30;101299.41;4993148;28;20038;-47
2023/10/12 13:30:17;;;;;;;11.80;6.80;;;;;;;20.55;81.90;101290.84;4993012;28;20407;-47
2023/10/12 13:32:43;;;;;;;11.75;7.10;;;;;;;20.86;81.54;101280.47;4993118;28;20035;-47
2023/10/12 13:35:28;;;;;;;13.60;7.13;;;;;;;20.77;81.71;101284.19;4992652;28;20062;-44
2023/10/12 13:37:54;;;;;;;12.45;7.15;;;;;;;20.81;81.76;101291.16;4993266;28;20073;-44
2023/10/12 13:40:19;;;;;;;10.95;6.82;;;;;;;21.07;81.25;101287.91;4992716;28;20035;-47
2023/10/12 13:42:45;;;;;;;10.50;6.65;;;;;;;21.22;80.64;101282.31;4993442;28;20126;-45
2023/10/12 13:45:16;;;;;;;9.20;6.22;;;;;;;21.29;80.51;101286.53;4993130;28;20038;-43
2023/10/12 13:47:46;;;;;;;8.68;5.97;;;;;;;21.40;80.87;101288.94;4993454;28;20039;-48
2023/10/12 13:50:13;;;;;;;10.35;6.57;;;;;;;21.35;80.18;101294.31;4993700;28;20043;-46
2023/10/12 13:52:39;;;;;;;10.90;6.80;;;;;;;21.34;80.07;101297.03;4994686;28;20030;-46
2023/10/12 13:55:13;;;;;;;11.55;7.00;;;;;;;21.34;79.95;101308.53;4993666;28;20026;-45